createdAt,value
2017-12-20T00:01:20.119Z,20.00
2017-12-20T00:03:47.727Z,20.83
2017-12-20T00:06:15.355Z,22.53
2017-12-20T00:08:42.958Z,21.10
2017-12-20T00:11:10.572Z,20.80
2017-12-20T00:13:38.177Z,27.00
2017-12-20T00:16:09.142Z,23.17
2017-12-20T00:18:37.537Z,22.30
2017-12-20T00:21:05.153Z,20.80
2017-12-20T00:23:32.770Z,20.07
2017-12-20T00:26:00.377Z,18.63
2017-12-20T00:28:27.982Z,23.47
2017-12-20T00:30:55.603Z,18.87
2017-12-20T00:33:23.205Z,20.50
2017-12-20T00:35:50.802Z,19.33
2017-12-20T00:38:18.404Z,21.47
2017-12-20T00:40:46.767Z,20.30
2017-12-20T00:43:14.402Z,20.60
2017-12-20T00:45:41.997Z,20.83
2017-12-20T00:48:10.378Z,17.10
2017-12-20T00:50:38.739Z,25.40
2017-12-20T00:53:06.351Z,19.13
2017-12-20T00:55:33.960Z,17.77
2017-12-20T00:58:01.562Z,17.67
2017-12-20T01:00:29.181Z,19.10
2017-12-20T01:03:20.323Z,23.83
2017-12-20T01:05:48.710Z,18.10
2017-12-20T01:08:17.099Z,17.17
2017-12-20T01:10:44.694Z,18.90
2017-12-20T01:13:12.285Z,16.63
2017-12-20T01:15:39.866Z,17.47
2017-12-20T01:18:08.230Z,15.73
2017-12-20T01:20:35.837Z,17.23
2017-12-20T01:23:03.422Z,15.90
2017-12-20T01:25:31.776Z,18.27
2017-12-20T01:27:59.384Z,17.47
2017-12-20T01:30:26.987Z,18.47
2017-12-20T01:32:54.612Z,15.83
2017-12-20T01:35:22.210Z,16.70
2017-12-20T01:37:49.800Z,17.70
2017-12-20T01:40:17.417Z,20.00
2017-12-20T01:42:45.806Z,19.20
2017-12-20T01:45:13.432Z,16.07
2017-12-20T01:47:41.022Z,14.63
2017-12-20T01:50:09.393Z,17.23
2017-12-20T01:52:37.760Z,17.17
2017-12-20T01:55:05.374Z,15.77
2017-12-20T01:57:33.009Z,15.20
2017-12-20T02:00:00.617Z,17.43
2017-12-20T02:02:28.205Z,16.50
2017-12-20T02:04:55.793Z,15.90
2017-12-20T02:07:23.382Z,16.13
2017-12-20T02:09:50.993Z,15.67
2017-12-20T02:12:19.376Z,19.20
2017-12-20T02:14:47.738Z,19.87
2017-12-20T02:17:15.337Z,18.20
2017-12-20T02:19:42.924Z,16.30
2017-12-20T02:22:10.535Z,16.93
2017-12-20T02:24:38.919Z,17.73
2017-12-20T02:27:07.288Z,15.77
2017-12-20T02:29:35.671Z,15.30
2017-12-20T02:32:04.028Z,18.90
2017-12-20T02:34:31.661Z,17.60
2017-12-20T02:36:59.263Z,20.07
2017-12-20T02:39:26.857Z,18.33
2017-12-20T02:41:54.462Z,20.80
2017-12-20T02:44:22.048Z,14.73
2017-12-20T02:46:49.688Z,13.10
2017-12-20T02:49:17.295Z,13.17
2017-12-20T02:51:45.649Z,12.40
2017-12-20T02:54:13.280Z,12.60
2017-12-20T02:56:40.873Z,13.40
2017-12-20T02:59:08.501Z,13.87
2017-12-20T03:01:36.089Z,10.70
2017-12-20T03:04:03.698Z,11.90
2017-12-20T03:06:31.320Z,11.50
2017-12-20T03:08:58.916Z,10.70
2017-12-20T03:11:26.568Z,13.90
2017-12-20T03:13:54.150Z,13.07
2017-12-20T03:16:21.751Z,14.00
2017-12-20T03:18:49.345Z,12.50
2017-12-20T03:21:17.707Z,13.00
2017-12-20T03:23:46.101Z,14.83
2017-12-20T03:26:14.467Z,14.90
2017-12-20T03:28:42.825Z,14.20
2017-12-20T03:31:10.423Z,19.10
2017-12-20T03:33:38.824Z,14.80
2017-12-20T03:36:06.442Z,16.63
2017-12-20T03:38:34.041Z,13.90
2017-12-20T03:41:01.628Z,14.27
2017-12-20T03:43:29.234Z,15.73
2017-12-20T03:45:57.596Z,13.70
2017-12-20T03:48:25.223Z,14.63
2017-12-20T03:50:52.839Z,14.90
2017-12-20T03:53:21.222Z,16.57
2017-12-20T03:55:49.581Z,15.10
2017-12-20T03:58:17.166Z,14.37
2017-12-20T04:00:44.780Z,14.40
2017-12-20T04:03:12.370Z,14.20
2017-12-20T04:05:39.965Z,13.33
2017-12-20T04:08:07.551Z,16.10
2017-12-20T04:10:35.134Z,15.07
2017-12-20T04:13:02.753Z,13.83
2017-12-20T04:15:30.341Z,12.80
2017-12-20T04:17:57.936Z,15.47
2017-12-20T04:20:25.555Z,16.30
2017-12-20T04:22:53.156Z,16.07
2017-12-20T04:25:20.777Z,14.90
2017-12-20T04:27:48.376Z,13.20
2017-12-20T04:30:15.974Z,16.97
2017-12-20T04:32:43.570Z,15.60
2017-12-20T04:35:11.179Z,14.87
2017-12-20T04:37:38.819Z,15.47
2017-12-20T04:40:06.427Z,14.93
2017-12-20T04:42:34.027Z,12.30
2017-12-20T04:45:01.631Z,14.10
2017-12-20T04:47:30.044Z,15.60
2017-12-20T04:49:57.664Z,13.07
2017-12-20T04:52:26.032Z,15.30
2017-12-20T04:54:53.620Z,17.50
2017-12-20T04:57:21.227Z,15.00
2017-12-20T04:59:48.841Z,15.33
2017-12-20T05:02:16.457Z,17.20
2017-12-20T05:04:44.064Z,14.37
2017-12-20T05:07:11.669Z,14.60
2017-12-20T05:09:39.258Z,16.60
2017-12-20T05:12:07.640Z,15.50
2017-12-20T05:14:36.056Z,14.53
2017-12-20T05:17:03.678Z,14.53
2017-12-20T05:19:31.281Z,14.60
2017-12-20T05:21:59.533Z,15.07
2017-12-20T05:24:28.091Z,16.90
2017-12-20T05:26:55.704Z,18.00
2017-12-20T05:29:23.289Z,17.57
2017-12-20T05:31:50.873Z,21.63
2017-12-20T05:34:28.238Z,19.20
2017-12-20T05:36:55.855Z,18.30
2017-12-20T05:39:24.241Z,17.57
2017-12-20T05:41:51.885Z,16.77
2017-12-20T05:44:20.245Z,16.70
2017-12-20T05:46:47.847Z,14.67
2017-12-20T05:49:15.445Z,16.03
2017-12-20T05:51:43.065Z,16.50
2017-12-20T05:54:10.661Z,16.60
2017-12-20T05:56:38.264Z,15.43
2017-12-20T05:59:06.632Z,13.93
2017-12-20T06:01:34.232Z,13.83
2017-12-20T06:04:06.498Z,16.70
2017-12-20T06:06:34.106Z,15.47
2017-12-20T06:09:01.701Z,18.63
2017-12-20T06:11:30.071Z,16.63
2017-12-20T06:13:57.688Z,16.00
2017-12-20T06:16:25.323Z,15.90
2017-12-20T06:18:52.930Z,15.80
2017-12-20T06:21:20.519Z,15.57
2017-12-20T06:23:48.886Z,18.30
2017-12-20T06:26:16.494Z,14.07
2017-12-20T06:28:44.122Z,13.80
2017-12-20T06:31:12.503Z,15.90
2017-12-20T06:33:40.090Z,12.47
2017-12-20T06:36:07.719Z,13.70
2017-12-20T06:38:35.342Z,14.57
2017-12-20T06:41:02.979Z,14.10
2017-12-20T06:43:30.593Z,13.30
2017-12-20T06:45:58.200Z,14.53
2017-12-20T06:48:25.811Z,13.80
2017-12-20T06:50:53.424Z,12.30
2017-12-20T06:53:21.032Z,13.00
2017-12-20T06:55:48.642Z,14.53
2017-12-20T06:58:16.251Z,13.20
2017-12-20T07:00:43.879Z,13.30
2017-12-20T07:03:11.481Z,12.87
2017-12-20T07:05:39.096Z,13.37
2017-12-20T07:08:06.686Z,13.03
2017-12-20T07:10:34.287Z,11.70
2017-12-20T07:13:01.944Z,13.27
2017-12-20T07:15:30.350Z,12.97
2017-12-20T07:17:57.968Z,11.67
2017-12-20T07:23:18.356Z,13.03
2017-12-20T07:25:45.946Z,12.60
2017-12-20T07:28:13.558Z,11.53
2017-12-20T07:30:41.157Z,13.30
2017-12-20T07:33:08.747Z,12.13
2017-12-20T07:35:37.157Z,16.17
2017-12-20T07:38:04.761Z,11.97
2017-12-20T07:40:32.402Z,11.70
2017-12-20T07:42:59.990Z,11.80
2017-12-20T07:45:27.596Z,12.00
2017-12-20T07:47:55.217Z,12.77
2017-12-20T07:50:22.796Z,11.87
2017-12-20T07:52:51.171Z,11.37
2017-12-20T07:55:18.753Z,18.67
2017-12-20T07:57:46.347Z,13.70
2017-12-20T08:00:13.979Z,18.10
2017-12-20T08:02:41.589Z,14.47
2017-12-20T08:05:09.207Z,12.00
2017-12-20T08:07:36.802Z,12.10
2017-12-20T08:10:04.396Z,15.83
2017-12-20T08:12:32.073Z,12.13
2017-12-20T08:15:00.446Z,30.77
2017-12-20T08:17:28.802Z,34.90
2017-12-20T08:19:56.399Z,19.97
2017-12-20T08:22:24.015Z,18.97
2017-12-20T08:24:51.626Z,14.33
2017-12-20T08:27:19.230Z,13.57
2017-12-20T08:29:46.831Z,17.87
2017-12-20T08:32:15.227Z,12.53
2017-12-20T08:34:42.851Z,13.47
2017-12-20T08:37:10.492Z,14.40
2017-12-20T08:39:38.095Z,14.17
2017-12-20T08:42:06.464Z,12.27
2017-12-20T08:44:34.059Z,11.77
2017-12-20T08:47:01.670Z,14.40
2017-12-20T08:49:29.291Z,13.77
2017-12-20T08:51:56.910Z,11.13
2017-12-20T08:54:24.594Z,12.47
2017-12-20T08:56:52.952Z,14.83
2017-12-20T08:59:20.545Z,12.60
2017-12-20T09:01:48.131Z,9.93
2017-12-20T09:04:15.740Z,12.40
2017-12-20T09:06:44.151Z,11.27
2017-12-20T09:09:11.747Z,8.40
2017-12-20T09:11:39.364Z,7.63
2017-12-20T09:14:06.966Z,9.60
2017-12-20T09:16:34.570Z,8.57
2017-12-20T09:19:03.192Z,9.70
2017-12-20T09:21:30.914Z,12.30
2017-12-20T09:23:59.279Z,9.20
2017-12-20T09:26:26.874Z,9.03
2017-12-20T09:28:54.455Z,9.50
2017-12-20T09:31:22.056Z,10.40
2017-12-20T09:33:49.666Z,10.20
2017-12-20T09:36:17.264Z,9.83
2017-12-20T09:38:44.866Z,6.90
2017-12-20T09:41:13.243Z,9.40
2017-12-20T09:43:41.607Z,13.60
2017-12-20T09:46:09.201Z,9.47
2017-12-20T09:48:36.803Z,10.27
2017-12-20T09:51:04.376Z,9.70
2017-12-20T09:53:31.991Z,10.87
2017-12-20T09:55:59.587Z,9.70
2017-12-20T09:58:27.199Z,9.30
2017-12-20T10:00:54.827Z,12.73
2017-12-20T10:03:22.436Z,10.67
2017-12-20T10:05:50.061Z,10.90
2017-12-20T10:08:17.681Z,12.97
2017-12-20T10:10:45.284Z,12.40
2017-12-20T10:13:12.908Z,11.40
2017-12-20T10:15:40.510Z,14.83
2017-12-20T10:18:11.963Z,12.13
2017-12-20T10:20:39.554Z,8.77
2017-12-20T10:23:07.150Z,10.43
2017-12-20T10:25:34.751Z,10.47
2017-12-20T10:28:03.106Z,8.23
2017-12-20T10:30:30.718Z,9.80
2017-12-20T10:32:58.343Z,7.87
2017-12-20T10:35:25.951Z,7.97
2017-12-20T10:37:53.574Z,8.67
2017-12-20T10:40:21.953Z,7.07
2017-12-20T10:42:50.356Z,9.10
2017-12-20T10:45:18.101Z,7.57
2017-12-20T10:47:46.470Z,9.20
2017-12-20T10:50:14.062Z,8.13
2017-12-20T10:52:41.671Z,7.10
2017-12-20T10:55:09.300Z,6.97
2017-12-20T10:57:36.896Z,7.07
2017-12-20T11:00:04.512Z,7.60
2017-12-20T11:02:32.104Z,7.60
2017-12-20T11:04:59.695Z,6.80
2017-12-20T11:07:28.081Z,6.00
2017-12-20T11:09:56.466Z,6.40
2017-12-20T11:12:24.842Z,7.03
2017-12-20T11:14:53.236Z,6.10
2017-12-20T11:17:20.863Z,6.83
2017-12-20T11:19:48.514Z,6.20
2017-12-20T11:22:16.119Z,7.50
2017-12-20T11:24:44.473Z,9.27
2017-12-20T11:27:12.076Z,6.37
2017-12-20T11:29:45.692Z,6.47
2017-12-20T11:32:13.353Z,5.90
2017-12-20T11:34:40.954Z,5.50
2017-12-20T11:37:08.543Z,5.93
2017-12-20T11:39:36.145Z,4.87
2017-12-20T11:42:03.751Z,4.77
2017-12-20T11:44:32.160Z,3.80
2017-12-20T11:46:59.748Z,3.83
2017-12-20T11:49:27.353Z,3.93
2017-12-20T11:51:56.461Z,3.60
2017-12-20T11:54:25.400Z,3.90
2017-12-20T11:56:53.062Z,3.50
2017-12-20T11:59:20.673Z,3.63
2017-12-20T12:01:49.071Z,3.20
2017-12-20T12:04:16.656Z,2.90
2017-12-20T12:06:44.245Z,2.77
2017-12-20T12:09:12.726Z,2.43
2017-12-20T12:11:40.321Z,2.50
2017-12-20T12:14:08.663Z,2.37
2017-12-20T12:16:38.120Z,3.20
2017-12-20T12:19:05.699Z,2.77
2017-12-20T12:21:33.319Z,3.10
2017-12-20T12:24:01.681Z,4.40
2017-12-20T12:26:29.268Z,5.00
2017-12-20T12:28:57.662Z,3.43
2017-12-20T12:31:25.237Z,4.23
2017-12-20T12:33:52.902Z,4.17
2017-12-20T12:36:20.534Z,4.37
2017-12-20T12:38:48.895Z,3.60
2017-12-20T12:41:16.496Z,4.40
2017-12-20T12:43:44.094Z,3.60
2017-12-20T12:46:11.718Z,3.87
2017-12-20T12:48:39.371Z,3.40
2017-12-20T12:51:06.956Z,3.40
2017-12-20T12:53:34.540Z,4.40
2017-12-20T12:56:02.117Z,3.20
2017-12-20T12:58:29.743Z,2.80
2017-12-20T13:00:57.341Z,3.13
2017-12-20T13:03:24.956Z,2.57
2017-12-20T13:05:56.452Z,2.87
2017-12-20T13:08:24.059Z,2.60
2017-12-20T13:10:51.693Z,3.27
2017-12-20T13:13:20.061Z,3.60
2017-12-20T13:15:48.416Z,4.60
2017-12-20T13:18:16.025Z,8.87
2017-12-20T13:20:43.607Z,9.10
2017-12-20T13:23:11.238Z,7.80
2017-12-20T13:25:39.576Z,6.77
2017-12-20T13:28:07.164Z,5.43
2017-12-20T13:30:34.767Z,4.60
2017-12-20T13:33:02.410Z,3.80
2017-12-20T13:35:30.041Z,3.97
2017-12-20T13:37:57.631Z,3.57
2017-12-20T13:40:26.000Z,3.50
2017-12-20T13:42:54.359Z,4.43
2017-12-20T13:45:21.987Z,4.37
2017-12-20T13:47:49.610Z,4.10
2017-12-20T13:50:17.205Z,4.50
2017-12-20T13:52:44.815Z,6.33
2017-12-20T13:55:13.171Z,8.87
2017-12-20T13:57:40.773Z,8.17
2017-12-20T14:00:09.159Z,10.33
2017-12-20T14:02:36.757Z,11.30
2017-12-20T14:05:04.369Z,9.87
2017-12-20T14:07:32.719Z,8.77
2017-12-20T14:10:00.309Z,10.20
2017-12-20T14:12:28.696Z,9.03
2017-12-20T14:14:56.303Z,8.83
2017-12-20T14:17:23.914Z,7.70
2017-12-20T14:19:53.343Z,8.10
2017-12-20T14:22:20.987Z,7.40
2017-12-20T14:24:48.641Z,11.03
2017-12-20T14:27:16.998Z,7.87
2017-12-20T14:29:44.596Z,8.60
2017-12-20T14:32:12.193Z,8.63
2017-12-20T14:34:39.804Z,9.43
2017-12-20T14:37:08.182Z,9.73
2017-12-20T14:39:36.550Z,10.20
2017-12-20T14:42:04.900Z,9.30
2017-12-20T14:44:32.521Z,8.53
2017-12-20T14:47:01.045Z,8.20
2017-12-20T14:49:29.431Z,9.50
2017-12-20T14:51:57.028Z,8.40
2017-12-20T14:54:25.378Z,8.80
2017-12-20T14:56:52.988Z,8.77
2017-12-20T14:59:20.592Z,8.37
2017-12-20T15:01:48.948Z,10.30
2017-12-20T15:04:16.579Z,11.83
2017-12-20T15:06:44.171Z,10.33
2017-12-20T15:09:11.767Z,9.80
2017-12-20T15:11:39.379Z,10.33
2017-12-20T15:14:07.101Z,13.00
2017-12-20T15:16:36.813Z,10.07
2017-12-20T15:19:05.208Z,9.80
2017-12-20T15:21:33.587Z,10.57
2017-12-20T15:24:01.950Z,10.77
2017-12-20T15:26:30.349Z,12.47
2017-12-20T15:29:02.555Z,15.40
2017-12-20T15:31:30.184Z,12.27
2017-12-20T15:33:57.779Z,10.40
2017-12-20T15:36:25.375Z,10.10
2017-12-20T15:38:52.987Z,13.57
2017-12-20T15:41:20.582Z,10.90
2017-12-20T15:43:48.211Z,13.43
2017-12-20T15:46:15.812Z,14.43
2017-12-20T15:48:43.425Z,13.60
2017-12-20T15:51:11.036Z,12.20
2017-12-20T15:53:38.670Z,12.83
2017-12-20T15:56:06.315Z,14.90
2017-12-20T15:58:33.939Z,15.27
2017-12-20T16:01:02.305Z,13.57
2017-12-20T16:03:29.904Z,20.80
2017-12-20T16:05:57.515Z,15.57
2017-12-20T16:08:25.246Z,15.03
2017-12-20T16:10:52.847Z,13.53
2017-12-20T16:13:21.272Z,13.77
2017-12-20T16:15:48.925Z,16.10
2017-12-20T16:18:16.527Z,16.70
2017-12-20T16:20:44.157Z,14.83
2017-12-20T16:23:11.766Z,17.40
2017-12-20T16:25:39.362Z,16.17
2017-12-20T16:28:07.750Z,17.77
2017-12-20T16:30:36.115Z,13.47
2017-12-20T16:33:04.542Z,14.80
2017-12-20T16:35:32.182Z,10.90
2017-12-20T16:37:59.789Z,12.90
2017-12-20T16:40:27.407Z,12.20
2017-12-20T16:42:55.016Z,11.40
2017-12-20T16:45:22.699Z,11.00
2017-12-20T16:47:51.071Z,12.33
2017-12-20T16:50:18.678Z,12.00
2017-12-20T16:52:46.286Z,11.50
2017-12-20T16:55:13.873Z,13.30
2017-12-20T16:57:42.291Z,13.10
2017-12-20T17:00:09.895Z,12.60
2017-12-20T17:02:39.004Z,12.10
2017-12-20T17:05:07.395Z,12.70
2017-12-20T17:07:35.771Z,11.97
2017-12-20T17:10:04.146Z,13.87
2017-12-20T17:12:32.508Z,20.23
2017-12-20T17:15:06.651Z,15.00
2017-12-20T17:17:34.253Z,18.50
2017-12-20T17:20:01.893Z,16.67
2017-12-20T17:22:29.524Z,12.83
2017-12-20T17:24:57.876Z,13.57
2017-12-20T17:27:25.500Z,15.37
2017-12-20T17:29:53.129Z,14.63
2017-12-20T17:32:21.500Z,14.57
2017-12-20T17:34:49.878Z,13.90
2017-12-20T17:37:18.244Z,12.80
2017-12-20T17:39:45.872Z,13.50
2017-12-20T17:42:13.466Z,16.30
2017-12-20T17:44:41.138Z,14.10
2017-12-20T17:47:08.744Z,12.73
2017-12-20T17:52:10.100Z,12.30
2017-12-20T17:54:37.711Z,14.30
2017-12-20T17:57:05.370Z,17.13
2017-12-20T17:59:33.003Z,20.60
2017-12-20T18:02:00.619Z,14.97
2017-12-20T18:04:29.033Z,17.37
2017-12-20T18:07:00.342Z,17.87
2017-12-20T18:09:27.941Z,15.47
2017-12-20T18:11:55.540Z,16.37
2017-12-20T18:14:23.135Z,16.70
2017-12-20T18:16:51.521Z,15.97
2017-12-20T18:19:19.902Z,18.00
2017-12-20T18:21:48.263Z,14.53
2017-12-20T18:24:15.866Z,19.37
2017-12-20T18:26:43.469Z,16.23
2017-12-20T18:29:11.088Z,18.67
2017-12-20T18:31:42.591Z,21.43
2017-12-20T18:34:10.240Z,23.83
2017-12-20T18:36:37.877Z,20.27
2017-12-20T18:39:05.469Z,18.97
2017-12-20T18:41:33.095Z,20.03
2017-12-20T18:44:00.707Z,20.60
2017-12-20T18:46:28.434Z,21.00
2017-12-20T18:48:56.028Z,19.03
2017-12-20T18:51:23.630Z,20.30
2017-12-20T18:53:51.254Z,20.40
2017-12-20T18:56:19.634Z,17.83
2017-12-20T18:58:48.066Z,16.13
2017-12-20T19:01:15.656Z,18.53
2017-12-20T19:03:43.273Z,17.40
2017-12-20T19:06:10.895Z,17.67
2017-12-20T19:08:38.488Z,24.60
2017-12-20T19:11:06.147Z,30.17
2017-12-20T19:13:33.748Z,35.33
2017-12-20T19:16:02.846Z,19.90
2017-12-20T19:18:31.216Z,23.33
2017-12-20T19:20:58.815Z,23.97
2017-12-20T19:23:26.432Z,22.70
2017-12-20T19:25:57.204Z,20.87
2017-12-20T19:28:24.829Z,21.50
2017-12-20T19:30:52.417Z,25.57
2017-12-20T19:33:20.024Z,35.17
2017-12-20T19:35:47.651Z,32.57
2017-12-20T19:38:15.246Z,32.33
2017-12-20T19:40:42.843Z,23.17
2017-12-20T19:43:10.434Z,17.33
2017-12-20T19:48:39.041Z,15.17
2017-12-20T19:51:06.654Z,14.60
2017-12-20T19:53:34.247Z,14.23
2017-12-20T19:59:10.173Z,18.57
2017-12-20T20:01:38.568Z,18.00
2017-12-20T20:04:06.167Z,21.60
2017-12-20T20:06:46.489Z,16.70
2017-12-20T20:09:14.077Z,14.67
2017-12-20T20:11:41.722Z,14.37
2017-12-20T20:14:09.346Z,15.03
2017-12-20T20:19:43.221Z,15.67
2017-12-20T20:22:10.847Z,16.30
2017-12-20T20:27:35.902Z,13.03
2017-12-20T20:30:03.514Z,15.00
2017-12-20T20:32:31.895Z,12.50
2017-12-20T20:35:00.251Z,13.50
2017-12-20T20:37:27.896Z,15.20
2017-12-20T20:39:58.682Z,12.80
2017-12-20T20:42:27.051Z,13.50
2017-12-20T20:44:54.680Z,13.93
2017-12-20T20:47:29.204Z,15.40
2017-12-20T20:49:56.814Z,15.43
2017-12-20T20:52:25.229Z,14.77
2017-12-20T20:54:52.831Z,16.20
2017-12-20T20:57:20.443Z,13.90
2017-12-20T20:59:58.460Z,15.30
2017-12-20T21:02:26.071Z,16.33
2017-12-20T21:04:53.713Z,13.13
2017-12-20T21:07:21.305Z,14.30
2017-12-20T21:09:49.666Z,16.33
2017-12-20T21:12:18.042Z,16.30
2017-12-20T21:14:45.654Z,14.10
2017-12-20T21:17:13.292Z,17.40
2017-12-20T21:19:41.679Z,15.67
2017-12-20T21:22:09.278Z,15.37
2017-12-20T21:24:36.892Z,16.17
2017-12-20T21:27:05.276Z,13.77
2017-12-20T21:29:33.656Z,13.17
2017-12-20T21:32:01.261Z,12.97
2017-12-20T21:34:28.870Z,14.90
2017-12-20T21:36:57.240Z,12.90
2017-12-20T21:39:25.610Z,13.47
2017-12-20T21:41:53.255Z,11.43
2017-12-20T21:44:21.874Z,13.40
2017-12-20T21:46:57.398Z,13.17
2017-12-20T21:49:25.001Z,12.43
2017-12-20T21:51:52.648Z,12.67
2017-12-20T21:54:20.287Z,12.33
2017-12-20T21:56:47.920Z,13.13
2017-12-20T21:59:25.740Z,12.33
2017-12-20T22:01:53.338Z,11.63
2017-12-20T22:04:25.324Z,13.17
2017-12-20T22:06:52.918Z,12.47
2017-12-20T22:09:20.544Z,13.50
2017-12-20T22:11:48.157Z,12.70
2017-12-20T22:14:15.776Z,12.50
2017-12-20T22:16:43.427Z,12.90
2017-12-20T22:19:11.036Z,12.03
2017-12-20T22:21:38.621Z,12.73
2017-12-20T22:24:06.993Z,11.70
2017-12-20T22:26:36.167Z,13.40
2017-12-20T22:29:03.834Z,11.30
2017-12-20T22:31:31.462Z,11.03
2017-12-20T22:33:59.057Z,10.00
2017-12-20T22:36:26.664Z,12.10
2017-12-20T22:38:54.270Z,11.60
2017-12-20T22:41:21.906Z,11.10
2017-12-20T22:43:49.490Z,12.63
2017-12-20T22:46:17.131Z,14.17
2017-12-20T22:48:44.764Z,10.70
2017-12-20T22:51:13.129Z,9.70
2017-12-20T22:53:41.508Z,9.77
2017-12-20T22:56:09.896Z,11.83
2017-12-20T23:01:31.066Z,10.40
2017-12-20T23:03:58.682Z,9.70
2017-12-20T23:06:27.030Z,11.20
2017-12-20T23:08:54.617Z,10.40
2017-12-20T23:11:22.969Z,10.60
2017-12-20T23:13:50.559Z,11.20
2017-12-20T23:16:18.952Z,10.57
2017-12-20T23:18:47.366Z,10.50
2017-12-20T23:21:14.946Z,12.53
2017-12-20T23:23:42.575Z,12.10
2017-12-20T23:26:10.178Z,12.33
2017-12-20T23:28:37.821Z,12.93
2017-12-20T23:31:05.413Z,10.30
2017-12-20T23:33:33.062Z,13.20
2017-12-20T23:36:00.656Z,12.43
2017-12-20T23:38:29.551Z,11.30
2017-12-20T23:40:57.931Z,10.80
2017-12-20T23:43:26.277Z,12.13
2017-12-20T23:45:53.881Z,12.87
2017-12-20T23:48:21.493Z,12.43
2017-12-20T23:50:49.098Z,11.43
2017-12-20T23:53:17.488Z,14.70
2017-12-20T23:55:45.096Z,15.50
2017-12-20T23:58:12.714Z,13.47
